createdAt,value
2018-05-27T00:00:46.504Z,22.74
2018-05-27T00:01:46.489Z,22.75
2018-05-27T00:02:46.466Z,22.72
2018-05-27T00:03:46.507Z,22.74
2018-05-27T00:04:46.469Z,22.74
2018-05-27T00:05:46.469Z,22.75
2018-05-27T00:06:46.506Z,22.75
2018-05-27T00:07:46.478Z,22.75
2018-05-27T00:08:46.487Z,22.74
2018-05-27T00:09:46.474Z,22.78
2018-05-27T00:10:46.520Z,22.75
2018-05-27T00:11:46.465Z,22.75
2018-05-27T00:12:46.569Z,22.75
2018-05-27T00:13:46.523Z,22.76
2018-05-27T00:14:46.622Z,22.71
2018-05-27T00:15:46.498Z,22.72
2018-05-27T00:16:46.523Z,22.72
2018-05-27T00:17:46.701Z,22.7
2018-05-27T00:18:46.509Z,22.7
2018-05-27T00:19:46.492Z,22.67
2018-05-27T00:20:46.486Z,22.67
2018-05-27T00:21:46.495Z,22.67
2018-05-27T00:22:46.513Z,22.68
2018-05-27T00:23:46.524Z,22.67
2018-05-27T00:24:46.501Z,22.65
2018-05-27T00:25:46.506Z,22.61
2018-05-27T00:26:46.499Z,22.61
2018-05-27T00:27:46.489Z,22.63
2018-05-27T00:28:46.512Z,22.63
2018-05-27T00:29:46.517Z,22.6
2018-05-27T00:30:46.482Z,22.61
2018-05-27T00:31:46.493Z,22.6
2018-05-27T00:32:46.501Z,22.58
2018-05-27T00:33:46.617Z,22.54
2018-05-27T00:34:46.531Z,22.54
2018-05-27T00:35:46.556Z,22.53
2018-05-27T00:36:46.484Z,22.48
2018-05-27T00:37:46.484Z,22.48
2018-05-27T00:38:46.500Z,22.48
2018-05-27T00:39:46.507Z,22.5
2018-05-27T00:40:46.505Z,22.5
2018-05-27T00:41:46.512Z,22.46
2018-05-27T00:42:46.555Z,22.44
2018-05-27T00:43:46.510Z,22.44
2018-05-27T00:44:46.504Z,22.43
2018-05-27T00:45:46.503Z,22.41
2018-05-27T00:46:46.480Z,22.41
2018-05-27T00:47:46.557Z,22.44
2018-05-27T00:48:46.487Z,22.41
2018-05-27T00:49:46.491Z,22.39
2018-05-27T00:50:46.475Z,22.39
2018-05-27T00:51:46.506Z,22.4
2018-05-27T00:52:46.509Z,22.36
2018-05-27T00:53:46.510Z,22.36
2018-05-27T00:54:46.487Z,22.33
2018-05-27T00:55:46.486Z,22.36
2018-05-27T00:56:46.551Z,22.36
2018-05-27T00:57:46.590Z,22.31
2018-05-27T00:58:46.530Z,22.29
2018-05-27T00:59:46.462Z,22.27
2018-05-27T01:00:46.502Z,22.24
2018-05-27T01:01:46.523Z,22.27
2018-05-27T01:02:46.491Z,22.29
2018-05-27T01:03:46.520Z,22.26
2018-05-27T01:04:46.499Z,22.24
2018-05-27T01:05:46.502Z,22.24
2018-05-27T01:06:46.493Z,22.24
2018-05-27T01:07:46.501Z,22.22
2018-05-27T01:08:46.489Z,22.24
2018-05-27T01:09:46.506Z,22.23
2018-05-27T01:10:46.547Z,22.24
2018-05-27T01:11:46.477Z,22.19
2018-05-27T01:12:46.483Z,22.2
2018-05-27T01:13:46.503Z,22.22
2018-05-27T01:14:46.486Z,22.22
2018-05-27T01:15:46.487Z,22.22
2018-05-27T01:16:46.481Z,22.2
2018-05-27T01:17:46.554Z,22.22
2018-05-27T01:18:46.479Z,22.19
2018-05-27T01:19:46.500Z,22.2
2018-05-27T01:20:46.489Z,22.23
2018-05-27T01:21:46.500Z,22.19
2018-05-27T01:22:46.514Z,22.2
2018-05-27T01:23:46.556Z,22.19
2018-05-27T01:24:46.482Z,22.19
2018-05-27T01:25:46.493Z,22.22
2018-05-27T01:26:46.644Z,22.19
2018-05-27T01:27:46.535Z,22.16
2018-05-27T01:28:46.532Z,22.13
2018-05-27T01:29:46.492Z,22.16
2018-05-27T01:30:46.530Z,22.13
2018-05-27T01:31:46.726Z,22.13
2018-05-27T01:32:46.519Z,22.13
2018-05-27T01:33:46.524Z,22.13
2018-05-27T01:34:46.498Z,22.15
2018-05-27T01:35:46.471Z,22.15
2018-05-27T01:36:46.559Z,22.13
2018-05-27T01:37:46.819Z,22.12
2018-05-27T01:38:46.463Z,22.11
2018-05-27T01:39:46.516Z,22.06
2018-05-27T01:40:46.464Z,22.06
2018-05-27T01:41:46.542Z,22.08
2018-05-27T01:42:46.524Z,22.06
2018-05-27T01:43:46.486Z,22.05
2018-05-27T01:44:46.460Z,22.03
2018-05-27T01:45:46.513Z,22.02
2018-05-27T01:46:46.473Z,22.02
2018-05-27T01:47:46.500Z,22.01
2018-05-27T01:48:46.658Z,21.95
2018-05-27T01:49:46.472Z,21.95
2018-05-27T01:50:46.493Z,21.95
2018-05-27T01:51:46.474Z,21.95
2018-05-27T01:52:46.476Z,21.94
2018-05-27T01:53:46.516Z,21.92
2018-05-27T01:54:46.642Z,21.91
2018-05-27T01:55:46.536Z,21.92
2018-05-27T01:56:46.549Z,21.86
2018-05-27T01:57:46.663Z,21.88
2018-05-27T01:58:46.489Z,21.86
2018-05-27T01:59:46.608Z,21.88
2018-05-27T02:00:46.492Z,21.89
2018-05-27T02:01:46.494Z,21.86
2018-05-27T02:02:46.538Z,21.84
2018-05-27T02:03:46.459Z,21.85
2018-05-27T02:04:46.488Z,21.85
2018-05-27T02:05:46.457Z,21.88
2018-05-27T02:06:46.755Z,21.88
2018-05-27T02:07:46.483Z,21.86
2018-05-27T02:08:46.494Z,21.86
2018-05-27T02:09:46.549Z,21.89
2018-05-27T02:10:46.467Z,21.86
2018-05-27T02:11:46.476Z,21.86
2018-05-27T02:12:46.518Z,21.86
2018-05-27T02:13:46.503Z,21.88
2018-05-27T02:14:46.468Z,21.86
2018-05-27T02:15:46.458Z,21.86
2018-05-27T02:16:46.476Z,21.85
2018-05-27T02:17:46.490Z,21.84
2018-05-27T02:18:46.470Z,21.84
2018-05-27T02:19:46.485Z,21.82
2018-05-27T02:20:46.466Z,21.82
2018-05-27T02:21:46.557Z,21.82
2018-05-27T02:22:46.447Z,21.81
2018-05-27T02:23:46.456Z,21.79
2018-05-27T02:24:46.448Z,21.79
2018-05-27T02:25:46.482Z,21.75
2018-05-27T02:26:46.468Z,21.77
2018-05-27T02:27:46.447Z,21.78
2018-05-27T02:28:46.462Z,21.75
2018-05-27T02:29:46.466Z,21.72
2018-05-27T02:30:46.480Z,21.74
2018-05-27T02:31:46.469Z,21.74
2018-05-27T02:32:46.502Z,21.69
2018-05-27T02:33:46.444Z,21.72
2018-05-27T02:34:46.451Z,21.71
2018-05-27T02:35:46.470Z,21.71
2018-05-27T02:36:46.651Z,21.68
2018-05-27T02:37:46.455Z,21.69
2018-05-27T02:38:46.554Z,21.69
2018-05-27T02:39:46.498Z,21.65
2018-05-27T02:40:46.724Z,21.68
2018-05-27T02:41:46.526Z,21.68
2018-05-27T02:42:46.747Z,21.64
2018-05-27T02:43:46.664Z,21.65
2018-05-27T02:44:46.469Z,21.64
2018-05-27T02:45:46.445Z,21.62
2018-05-27T02:46:46.464Z,21.61
2018-05-27T02:47:46.473Z,21.64
2018-05-27T02:48:46.480Z,21.6
2018-05-27T02:49:46.501Z,21.58
2018-05-27T02:50:46.443Z,21.61
2018-05-27T02:51:46.484Z,21.6
2018-05-27T02:52:46.498Z,21.57
2018-05-27T02:53:46.478Z,21.58
2018-05-27T02:54:46.502Z,21.58
2018-05-27T02:55:46.477Z,21.57
2018-05-27T02:56:46.479Z,21.58
2018-05-27T02:57:46.488Z,21.56
2018-05-27T02:58:46.753Z,21.57
2018-05-27T02:59:46.477Z,21.54
2018-05-27T03:00:46.492Z,21.53
2018-05-27T03:01:46.444Z,21.53
2018-05-27T03:02:46.474Z,21.54
2018-05-27T03:03:46.454Z,21.5
2018-05-27T03:04:46.439Z,21.51
2018-05-27T03:05:46.439Z,21.51
2018-05-27T03:06:46.517Z,21.47
2018-05-27T03:07:46.569Z,21.49
2018-05-27T03:08:46.494Z,21.46
2018-05-27T03:09:46.538Z,21.46
2018-05-27T03:10:46.532Z,21.43
2018-05-27T03:11:46.462Z,21.44
2018-05-27T03:12:46.588Z,21.41
2018-05-27T03:13:46.458Z,21.4
2018-05-27T03:14:46.491Z,21.39
2018-05-27T03:15:46.443Z,21.36
2018-05-27T03:16:46.463Z,21.36
2018-05-27T03:17:46.413Z,21.36
2018-05-27T03:18:46.554Z,21.33
2018-05-27T03:19:46.454Z,21.32
2018-05-27T03:20:46.457Z,21.29
2018-05-27T03:21:46.612Z,21.3
2018-05-27T03:22:46.893Z,21.29
2018-05-27T03:23:46.481Z,21.3
2018-05-27T03:24:46.489Z,21.29
2018-05-27T03:25:46.444Z,21.27
2018-05-27T03:26:46.480Z,21.26
2018-05-27T03:27:46.467Z,21.24
2018-05-27T03:28:46.421Z,21.24
2018-05-27T03:29:46.462Z,21.2
2018-05-27T03:30:46.478Z,21.1
2018-05-27T03:31:46.449Z,21.02
2018-05-27T03:32:46.481Z,20.85
2018-05-27T03:33:46.450Z,20.62
2018-05-27T03:34:46.437Z,20.5
2018-05-27T03:35:46.424Z,20.33
2018-05-27T03:36:46.441Z,20.27
2018-05-27T03:37:46.452Z,20.33
2018-05-27T03:38:46.461Z,20.37
2018-05-27T03:39:46.470Z,20.24
2018-05-27T03:40:46.438Z,20.23
2018-05-27T03:41:46.442Z,20.27
2018-05-27T03:42:46.423Z,20.23
2018-05-27T03:43:46.460Z,20.09
2018-05-27T03:44:46.484Z,20.04
2018-05-27T03:45:46.424Z,20.04
2018-05-27T03:46:46.467Z,20.01
2018-05-27T03:47:46.527Z,20.04
2018-05-27T03:48:46.479Z,20.01
2018-05-27T03:49:46.488Z,19.95
2018-05-27T03:50:46.445Z,19.99
2018-05-27T03:51:46.524Z,20.02
2018-05-27T03:52:46.444Z,20.06
2018-05-27T03:53:46.661Z,20.08
2018-05-27T03:54:46.450Z,20.09
2018-05-27T03:55:46.533Z,20.08
2018-05-27T03:56:46.636Z,20.12
2018-05-27T03:57:46.457Z,20.15
2018-05-27T03:58:46.450Z,20.13
2018-05-27T03:59:46.487Z,20.16
2018-05-27T04:00:46.424Z,20.11
2018-05-27T04:01:46.473Z,20.16
2018-05-27T04:02:46.580Z,20.15
2018-05-27T04:03:46.466Z,20.16
2018-05-27T04:04:46.569Z,20.16
2018-05-27T04:05:46.457Z,20.17
2018-05-27T04:06:46.509Z,20.13
2018-05-27T04:07:46.599Z,20.19
2018-05-27T04:08:46.540Z,20.16
2018-05-27T04:09:46.409Z,20.16
2018-05-27T04:10:46.562Z,20.16
2018-05-27T04:11:46.434Z,20.2
2018-05-27T04:12:46.471Z,20.22
2018-05-27T04:13:46.420Z,20.19
2018-05-27T04:14:46.425Z,20.19
2018-05-27T04:15:46.413Z,20.16
2018-05-27T04:16:46.489Z,20.19
2018-05-27T04:17:46.464Z,20.16
2018-05-27T04:18:46.515Z,20.11
2018-05-27T04:19:46.430Z,19.95
2018-05-27T04:20:46.612Z,19.88
2018-05-27T04:21:46.423Z,19.64
2018-05-27T04:22:46.460Z,19.67
2018-05-27T04:23:46.389Z,19.68
2018-05-27T04:24:46.409Z,19.71
2018-05-27T04:25:46.451Z,19.65
2018-05-27T04:26:46.418Z,19.71
2018-05-27T04:27:46.367Z,19.78
2018-05-27T04:28:46.549Z,19.77
2018-05-27T04:29:46.520Z,19.77
2018-05-27T04:30:46.391Z,19.81
2018-05-27T04:31:46.453Z,19.75
2018-05-27T04:32:46.440Z,19.77
2018-05-27T04:33:46.482Z,19.79
2018-05-27T04:34:46.397Z,19.81
2018-05-27T04:35:46.380Z,19.84
2018-05-27T04:36:46.452Z,19.82
2018-05-27T04:37:46.401Z,19.86
2018-05-27T04:38:46.404Z,19.86
2018-05-27T04:39:46.412Z,19.89
2018-05-27T04:40:46.427Z,19.92
2018-05-27T04:41:46.374Z,19.93
2018-05-27T04:42:46.401Z,19.93
2018-05-27T04:43:46.393Z,19.95
2018-05-27T04:44:46.733Z,19.98
2018-05-27T04:45:46.367Z,19.98
2018-05-27T04:46:46.407Z,19.99
2018-05-27T04:47:46.465Z,20.04
2018-05-27T04:48:46.396Z,20.02
2018-05-27T04:49:46.386Z,20.05
2018-05-27T04:50:46.393Z,20.08
2018-05-27T04:51:46.394Z,20.08
2018-05-27T04:52:46.408Z,20.11
2018-05-27T04:53:46.394Z,20.11
2018-05-27T04:54:46.375Z,20.11
2018-05-27T04:55:46.402Z,20.12
2018-05-27T04:56:46.372Z,20.13
2018-05-27T04:57:46.375Z,20.16
2018-05-27T04:58:46.386Z,20.15
2018-05-27T04:59:46.434Z,20.17
2018-05-27T05:00:46.361Z,20.2
2018-05-27T05:01:46.375Z,20.17
2018-05-27T05:02:46.408Z,20.23
2018-05-27T05:03:46.388Z,20.19
2018-05-27T05:04:46.400Z,20.23
2018-05-27T05:05:46.387Z,20.24
2018-05-27T05:06:46.426Z,20.24
2018-05-27T05:07:46.380Z,20.26
2018-05-27T05:08:46.414Z,20.27
2018-05-27T05:09:46.364Z,20.27
2018-05-27T05:10:46.447Z,20.3
2018-05-27T05:11:46.721Z,20.32
2018-05-27T05:12:46.532Z,20.34
2018-05-27T05:13:46.488Z,20.34
2018-05-27T05:14:46.388Z,20.39
2018-05-27T05:15:46.370Z,20.4
2018-05-27T05:16:46.369Z,20.43
2018-05-27T05:17:46.363Z,20.46
2018-05-27T05:18:46.442Z,20.46
2018-05-27T05:19:46.425Z,20.5
2018-05-27T05:20:46.429Z,20.51
2018-05-27T05:21:46.416Z,20.5
2018-05-27T05:22:46.390Z,20.52
2018-05-27T05:23:46.395Z,20.55
2018-05-27T05:24:46.384Z,20.54
2018-05-27T05:25:46.559Z,20.54
2018-05-27T05:26:46.373Z,20.58
2018-05-27T05:27:46.627Z,20.55
2018-05-27T05:28:46.366Z,20.6
2018-05-27T05:29:46.372Z,20.61
2018-05-27T05:30:46.381Z,20.61
2018-05-27T05:31:46.398Z,20.65
2018-05-27T05:32:46.443Z,20.57
2018-05-27T05:33:46.374Z,20.57
2018-05-27T05:34:46.424Z,20.61
2018-05-27T05:35:46.390Z,20.61
2018-05-27T05:36:46.364Z,20.67
2018-05-27T05:37:46.400Z,20.67
2018-05-27T05:38:46.404Z,20.71
2018-05-27T05:39:46.496Z,20.72
2018-05-27T05:40:46.369Z,20.75
2018-05-27T05:41:46.374Z,20.79
2018-05-27T05:42:46.449Z,20.82
2018-05-27T05:43:46.584Z,20.81
2018-05-27T05:44:46.372Z,20.85
2018-05-27T05:45:46.410Z,20.91
2018-05-27T05:46:46.356Z,20.92
2018-05-27T05:47:46.443Z,20.94
2018-05-27T05:48:46.425Z,20.95
2018-05-27T05:49:46.401Z,20.98
2018-05-27T05:50:46.408Z,21.02
2018-05-27T05:51:46.417Z,21.03
2018-05-27T05:52:46.375Z,21.07
2018-05-27T05:53:46.360Z,21.06
2018-05-27T05:54:46.348Z,21.12
2018-05-27T05:55:46.446Z,21.12
2018-05-27T05:56:46.375Z,21.16
2018-05-27T05:57:46.341Z,21.16
2018-05-27T05:58:46.337Z,21.19
2018-05-27T05:59:46.367Z,21.23
2018-05-27T06:00:46.361Z,21.26
2018-05-27T06:01:46.613Z,21.27
2018-05-27T06:02:46.376Z,21.3
2018-05-27T06:03:46.401Z,21.32
2018-05-27T06:04:46.405Z,21.36
2018-05-27T06:05:46.345Z,21.37
2018-05-27T06:06:46.417Z,21.4
2018-05-27T06:07:46.354Z,21.43
2018-05-27T06:08:46.364Z,21.47
2018-05-27T06:09:46.359Z,21.47
2018-05-27T06:10:46.346Z,21.5
2018-05-27T06:11:46.413Z,21.53
2018-05-27T06:12:46.558Z,21.58
2018-05-27T06:13:46.365Z,21.61
2018-05-27T06:14:46.539Z,21.65
2018-05-27T06:15:46.396Z,21.65
2018-05-27T06:16:46.380Z,21.69
2018-05-27T06:17:46.394Z,21.69
2018-05-27T06:18:46.405Z,21.71
2018-05-27T06:19:46.372Z,21.72
2018-05-27T06:20:46.574Z,21.77
2018-05-27T06:21:46.426Z,21.77
2018-05-27T06:22:46.394Z,21.81
2018-05-27T06:23:46.364Z,21.82
2018-05-27T06:24:46.351Z,21.86
2018-05-27T06:25:46.625Z,21.88
2018-05-27T06:26:46.485Z,21.89
2018-05-27T06:27:46.402Z,21.91
2018-05-27T06:28:46.460Z,21.94
2018-05-27T06:29:46.371Z,21.95
2018-05-27T06:30:46.377Z,21.99
2018-05-27T06:31:46.410Z,21.99
2018-05-27T06:32:46.370Z,21.99
2018-05-27T06:33:46.442Z,22.05
2018-05-27T06:34:46.439Z,22.06
2018-05-27T06:35:46.381Z,22.08
2018-05-27T06:36:46.340Z,22.12
2018-05-27T06:37:46.380Z,22.13
2018-05-27T06:38:47.468Z,22.16
2018-05-27T06:39:46.362Z,22.19
2018-05-27T06:40:46.395Z,22.22
2018-05-27T06:41:46.371Z,22.23
2018-05-27T06:42:46.836Z,22.26
2018-05-27T06:43:46.346Z,22.27
2018-05-27T06:44:46.408Z,22.29
2018-05-27T06:45:46.387Z,22.33
2018-05-27T06:46:46.362Z,22.36
2018-05-27T06:47:46.402Z,22.36
2018-05-27T06:48:46.366Z,22.4
2018-05-27T06:49:46.345Z,22.4
2018-05-27T06:50:46.393Z,22.46
2018-05-27T06:51:46.378Z,22.46
2018-05-27T06:52:46.369Z,22.46
2018-05-27T06:53:46.335Z,22.48
2018-05-27T06:54:46.375Z,22.51
2018-05-27T06:55:46.401Z,22.51
2018-05-27T06:56:46.330Z,22.53
2018-05-27T06:57:46.365Z,22.54
2018-05-27T06:58:46.340Z,22.58
2018-05-27T06:59:46.531Z,22.61
2018-05-27T07:00:46.458Z,22.63
2018-05-27T07:01:46.367Z,22.65
2018-05-27T07:02:46.324Z,22.67
2018-05-27T07:03:46.347Z,22.7
2018-05-27T07:04:46.752Z,22.67
2018-05-27T07:05:46.346Z,22.71
2018-05-27T07:06:46.390Z,22.71
2018-05-27T07:07:46.345Z,22.72
2018-05-27T07:08:46.337Z,22.74
2018-05-27T07:09:46.343Z,22.75
2018-05-27T07:10:46.343Z,22.78
2018-05-27T07:11:46.380Z,22.79
2018-05-27T07:12:46.331Z,22.81
2018-05-27T07:13:46.354Z,22.84
2018-05-27T07:14:46.342Z,22.86
2018-05-27T07:15:46.372Z,22.88
2018-05-27T07:16:46.384Z,22.88
2018-05-27T07:17:46.396Z,22.86
2018-05-27T07:18:46.378Z,22.88
2018-05-27T07:19:46.348Z,22.92
2018-05-27T07:20:46.367Z,22.94
2018-05-27T07:21:47.036Z,22.92
2018-05-27T07:22:46.376Z,22.95
2018-05-27T07:23:46.332Z,22.99
2018-05-27T07:24:46.387Z,23.06
2018-05-27T07:25:46.480Z,23.06
2018-05-27T07:26:46.323Z,23.06
2018-05-27T07:27:46.361Z,23.07
2018-05-27T07:28:46.334Z,23.15
2018-05-27T07:29:46.431Z,23.15
2018-05-27T07:30:46.479Z,23.19
2018-05-27T07:31:46.364Z,23.19
2018-05-27T07:32:46.319Z,23.25
2018-05-27T07:33:46.465Z,23.27
2018-05-27T07:34:46.361Z,23.3
2018-05-27T07:35:46.416Z,23.34
2018-05-27T07:36:46.443Z,23.39
2018-05-27T07:37:46.409Z,23.39
2018-05-27T07:38:46.319Z,23.44
2018-05-27T07:39:46.421Z,23.47
2018-05-27T07:40:46.695Z,23.5
2018-05-27T07:41:46.357Z,23.56
2018-05-27T07:42:46.361Z,23.58
2018-05-27T07:43:46.326Z,23.64
2018-05-27T07:44:46.392Z,23.65
2018-05-27T07:45:46.367Z,23.65
2018-05-27T07:46:46.363Z,23.71
2018-05-27T07:47:46.419Z,23.73
2018-05-27T07:48:46.374Z,23.78
2018-05-27T07:49:46.320Z,23.78
2018-05-27T07:50:46.416Z,23.84
2018-05-27T07:51:46.495Z,23.84
2018-05-27T07:52:46.313Z,23.91
2018-05-27T07:53:46.332Z,23.91
2018-05-27T07:54:46.375Z,23.89
2018-05-27T07:55:46.476Z,23.95
2018-05-27T07:56:46.321Z,24.05
2018-05-27T07:57:46.513Z,24.06
2018-05-27T07:58:46.409Z,24.1
2018-05-27T07:59:46.302Z,24.12
2018-05-27T08:00:46.407Z,24.16
2018-05-27T08:01:46.388Z,24.16
2018-05-27T08:02:46.356Z,24.2
2018-05-27T08:03:46.368Z,24.21
2018-05-27T08:04:46.406Z,24.21
2018-05-27T08:05:46.344Z,24.21
2018-05-27T08:06:46.325Z,24.26
2018-05-27T08:07:46.336Z,24.24
2018-05-27T08:08:46.338Z,24.23
2018-05-27T08:09:46.313Z,24.27
2018-05-27T08:10:46.340Z,24.24
2018-05-27T08:11:46.332Z,24.23
2018-05-27T08:12:46.419Z,24.21
2018-05-27T08:13:46.398Z,24.23
2018-05-27T08:14:46.376Z,24.26
2018-05-27T08:15:46.327Z,24.26
2018-05-27T08:16:46.305Z,24.29
2018-05-27T08:17:46.346Z,24.3
2018-05-27T08:18:46.410Z,24.35
2018-05-27T08:19:46.482Z,24.33
2018-05-27T08:20:46.359Z,24.36
2018-05-27T08:21:46.341Z,24.39
2018-05-27T08:22:46.428Z,24.44
2018-05-27T08:23:46.318Z,24.44
2018-05-27T08:24:46.316Z,24.47
2018-05-27T08:25:46.344Z,24.54
2018-05-27T08:26:46.533Z,24.57
2018-05-27T08:27:46.330Z,24.6
2018-05-27T08:28:46.338Z,24.64
2018-05-27T08:29:46.523Z,24.7
2018-05-27T08:30:46.325Z,24.77
2018-05-27T08:31:46.356Z,24.68
2018-05-27T08:32:46.369Z,24.7
2018-05-27T08:33:46.390Z,24.71
2018-05-27T08:34:46.326Z,24.74
2018-05-27T08:35:47.042Z,24.75
2018-05-27T08:36:46.317Z,24.81
2018-05-27T08:37:46.357Z,24.82
2018-05-27T08:38:46.324Z,24.91
2018-05-27T08:39:46.315Z,24.92
2018-05-27T08:40:46.314Z,24.97
2018-05-27T08:41:46.303Z,24.97
2018-05-27T08:42:46.340Z,24.98
2018-05-27T08:43:46.304Z,24.95
2018-05-27T08:44:46.341Z,24.97
2018-05-27T08:45:46.334Z,24.92
2018-05-27T08:46:46.324Z,24.91
2018-05-27T08:47:46.334Z,24.89
2018-05-27T08:48:46.289Z,24.89
2018-05-27T08:49:46.304Z,24.88
2018-05-27T08:50:46.306Z,24.88
2018-05-27T08:51:46.351Z,24.89
2018-05-27T08:52:46.376Z,24.89
2018-05-27T08:53:46.320Z,24.92
2018-05-27T08:54:46.310Z,24.92
2018-05-27T08:55:46.296Z,24.95
2018-05-27T08:56:46.309Z,24.99
2018-05-27T08:57:46.316Z,25.01
2018-05-27T08:58:46.322Z,25.05
2018-05-27T08:59:46.334Z,25.06
2018-05-27T09:00:46.323Z,25.09
2018-05-27T09:01:46.295Z,25.13
2018-05-27T09:02:46.283Z,25.19
2018-05-27T09:03:46.605Z,25.25
2018-05-27T09:04:46.344Z,25.29
2018-05-27T09:05:46.314Z,25.33
2018-05-27T09:06:46.353Z,25.41
2018-05-27T09:07:46.351Z,25.41
2018-05-27T09:08:46.356Z,25.47
2018-05-27T09:09:46.402Z,25.56
2018-05-27T09:10:46.335Z,25.6
2018-05-27T09:11:46.279Z,25.65
2018-05-27T09:12:46.327Z,25.68
2018-05-27T09:13:46.307Z,25.75
2018-05-27T09:14:46.328Z,25.77
2018-05-27T09:15:46.308Z,25.8
2018-05-27T09:16:46.315Z,25.82
2018-05-27T09:17:46.448Z,25.87
2018-05-27T09:18:46.390Z,25.85
2018-05-27T09:19:46.321Z,25.84
2018-05-27T09:20:46.302Z,25.87
2018-05-27T09:21:46.300Z,25.88
2018-05-27T09:22:46.388Z,25.91
2018-05-27T09:23:46.322Z,25.99
2018-05-27T09:24:46.485Z,26.03
2018-05-27T09:25:46.279Z,26.1
2018-05-27T09:26:46.321Z,26.13
2018-05-27T09:27:46.412Z,26.19
2018-05-27T09:28:46.458Z,26.17
2018-05-27T09:29:46.295Z,26.17
2018-05-27T09:30:46.425Z,26.2
2018-05-27T09:31:46.274Z,26.2
2018-05-27T09:32:46.312Z,26.26
2018-05-27T09:33:47.299Z,26.26
2018-05-27T09:34:46.490Z,26.22
2018-05-27T09:35:46.333Z,26.25
2018-05-27T09:36:46.294Z,26.25
2018-05-27T09:37:46.373Z,26.26
2018-05-27T09:38:46.341Z,26.29
2018-05-27T09:39:52.296Z,26.32
2018-05-27T09:40:47.365Z,26.32
2018-05-27T09:41:46.315Z,26.33
2018-05-27T09:42:46.315Z,26.36
2018-05-27T09:43:47.997Z,26.39
2018-05-27T09:44:46.303Z,26.42
2018-05-27T09:45:46.295Z,26.43
2018-05-27T09:46:47.228Z,26.44
2018-05-27T09:47:46.461Z,26.46
2018-05-27T09:48:46.309Z,26.44
2018-05-27T09:49:46.405Z,26.47
2018-05-27T09:50:46.309Z,26.47
2018-05-27T09:51:46.322Z,26.53
2018-05-27T09:52:46.440Z,26.58
2018-05-27T09:53:46.256Z,26.64
2018-05-27T09:54:46.409Z,26.62
2018-05-27T09:55:46.266Z,26.7
2018-05-27T09:56:46.256Z,26.75
2018-05-27T09:57:46.334Z,26.75
2018-05-27T09:58:46.312Z,26.77
2018-05-27T09:59:46.232Z,26.77
2018-05-27T10:00:46.294Z,26.78
2018-05-27T10:01:46.231Z,26.81
2018-05-27T10:02:46.301Z,26.79
2018-05-27T10:03:46.263Z,26.81
2018-05-27T10:04:46.250Z,26.77
2018-05-27T10:05:46.277Z,26.74
2018-05-27T10:06:46.328Z,26.74
2018-05-27T10:07:46.232Z,26.81
2018-05-27T10:08:46.236Z,26.78
2018-05-27T10:09:46.327Z,26.81
2018-05-27T10:10:46.240Z,26.82
2018-05-27T10:11:47.270Z,26.79
2018-05-27T10:12:46.378Z,26.81
2018-05-27T10:13:46.341Z,26.79
2018-05-27T10:14:46.301Z,26.81
2018-05-27T10:15:46.244Z,26.84
2018-05-27T10:16:46.306Z,26.89
2018-05-27T10:17:46.240Z,26.91
2018-05-27T10:18:46.300Z,26.91
2018-05-27T10:19:46.337Z,26.95
2018-05-27T10:20:46.250Z,26.98
2018-05-27T10:21:46.246Z,26.99
2018-05-27T10:22:46.253Z,27.01
2018-05-27T10:23:46.623Z,27.06
2018-05-27T10:24:46.740Z,27.12
2018-05-27T10:25:46.294Z,27.16
2018-05-27T10:26:46.258Z,27.24
2018-05-27T10:27:46.280Z,27.29
2018-05-27T10:28:46.237Z,27.32
2018-05-27T10:29:46.302Z,27.33
2018-05-27T10:30:46.247Z,27.34
2018-05-27T10:32:01.722Z,27.37
2018-05-27T10:32:46.407Z,27.41
2018-05-27T10:35:03.499Z,27.5
2018-05-27T10:35:04.690Z,27.51
2018-05-27T10:36:04.821Z,27.57
2018-05-27T10:37:05.068Z,27.6
2018-05-27T10:38:04.791Z,27.6
2018-05-27T10:39:04.935Z,27.58
2018-05-27T10:40:04.770Z,27.6
2018-05-27T10:41:04.792Z,27.62
2018-05-27T10:42:04.892Z,27.62
2018-05-27T10:43:04.790Z,27.56
2018-05-27T10:44:04.765Z,27.6
2018-05-27T10:45:07.304Z,27.61
2018-05-27T10:46:04.778Z,27.64
2018-05-27T10:47:04.794Z,27.68
2018-05-27T10:48:04.781Z,27.71
2018-05-27T10:49:04.793Z,27.74
2018-05-27T10:50:04.824Z,27.79
2018-05-27T10:51:04.827Z,27.84
2018-05-27T10:52:04.962Z,27.89
2018-05-27T10:53:06.474Z,27.85
2018-05-27T10:54:04.803Z,27.89
2018-05-27T10:55:04.813Z,27.96
2018-05-27T10:56:04.798Z,28.05
2018-05-27T10:57:04.852Z,28.01
2018-05-27T10:58:04.771Z,28.06
2018-05-27T10:59:04.744Z,28.05
2018-05-27T11:00:04.753Z,28.06
2018-05-27T11:01:04.789Z,28.11
2018-05-27T11:02:05.308Z,28.16
2018-05-27T11:03:04.948Z,28.16
2018-05-27T11:04:04.844Z,28.2
2018-05-27T11:05:04.957Z,28.2
2018-05-27T11:06:04.788Z,28.26
2018-05-27T11:07:04.764Z,28.33
2018-05-27T11:08:04.802Z,28.33
2018-05-27T11:09:04.777Z,28.36
2018-05-27T11:10:04.819Z,28.37
2018-05-27T11:11:04.750Z,28.41
2018-05-27T11:12:04.762Z,28.44
2018-05-27T11:13:04.859Z,28.48
2018-05-27T11:14:04.752Z,28.54
2018-05-27T11:15:04.748Z,28.55
2018-05-27T11:16:04.750Z,28.57
2018-05-27T11:17:04.945Z,28.58
2018-05-27T11:18:04.777Z,28.61
2018-05-27T11:19:04.899Z,28.58
2018-05-27T11:20:04.789Z,28.58
2018-05-27T11:21:04.759Z,28.57
2018-05-27T11:22:04.818Z,28.6
2018-05-27T11:23:04.774Z,28.66
2018-05-27T11:24:04.788Z,28.63
2018-05-27T11:25:04.764Z,28.68
2018-05-27T11:26:04.748Z,28.75
2018-05-27T11:27:04.954Z,28.78
2018-05-27T11:28:04.755Z,28.71
2018-05-27T11:29:04.776Z,28.78
2018-05-27T11:30:04.969Z,28.79
2018-05-27T11:31:04.783Z,28.82
2018-05-27T11:32:04.743Z,28.78
2018-05-27T11:33:04.914Z,28.75
2018-05-27T11:34:04.828Z,28.82
2018-05-27T11:35:04.761Z,28.77
2018-05-27T11:36:04.790Z,28.81
2018-05-27T11:37:04.911Z,28.84
2018-05-27T11:38:04.775Z,28.91
2018-05-27T11:39:04.750Z,28.96
2018-05-27T11:40:04.775Z,29.01
2018-05-27T11:41:04.863Z,29.02
2018-05-27T11:42:04.733Z,29.06
2018-05-27T11:43:04.840Z,29.07
2018-05-27T11:44:04.796Z,29.12
2018-05-27T11:45:04.820Z,29.07
2018-05-27T11:46:04.763Z,29.07
2018-05-27T11:47:04.835Z,29.07
2018-05-27T11:48:04.777Z,29.09
2018-05-27T11:49:04.766Z,29.12
2018-05-27T11:50:04.845Z,29.14
2018-05-27T11:51:04.780Z,29.14
2018-05-27T11:52:04.838Z,29.22
2018-05-27T11:53:04.812Z,29.25
2018-05-27T11:54:05.067Z,29.26
2018-05-27T11:55:04.833Z,29.28
2018-05-27T11:56:04.808Z,29.33
2018-05-27T11:57:04.791Z,29.26
2018-05-27T11:58:04.874Z,29.13
2018-05-27T11:59:04.749Z,29.13
2018-05-27T12:00:04.886Z,29.2
2018-05-27T12:01:05.000Z,29.26
2018-05-27T12:02:05.087Z,29.3
2018-05-27T12:03:05.028Z,29.32
2018-05-27T12:04:04.815Z,29.4
2018-05-27T12:05:04.932Z,29.46
2018-05-27T12:06:04.954Z,29.54
2018-05-27T12:07:04.821Z,29.58
2018-05-27T12:08:04.779Z,29.61
2018-05-27T12:09:05.932Z,29.64
2018-05-27T12:10:04.858Z,29.63
2018-05-27T12:11:04.868Z,29.68
2018-05-27T12:12:04.880Z,29.69
2018-05-27T12:13:04.907Z,29.71
2018-05-27T12:14:05.110Z,29.74
2018-05-27T12:15:05.732Z,29.68
2018-05-27T12:16:05.155Z,29.74
2018-05-27T12:17:05.321Z,29.74
2018-05-27T12:18:04.779Z,29.74
2018-05-27T12:19:04.813Z,29.68
2018-05-27T12:20:04.939Z,29.65
2018-05-27T12:21:04.969Z,29.65
2018-05-27T12:22:04.982Z,29.57
2018-05-27T12:23:04.766Z,29.53
2018-05-27T12:24:04.953Z,29.48
2018-05-27T12:25:04.862Z,29.43
2018-05-27T12:26:04.731Z,29.41
2018-05-27T12:27:04.833Z,29.4
2018-05-27T12:28:04.881Z,29.4
2018-05-27T12:29:04.754Z,29.43
2018-05-27T12:30:04.742Z,29.37
2018-05-27T12:31:04.731Z,29.33
2018-05-27T12:32:04.737Z,29.17
2018-05-27T12:33:04.873Z,29.23
2018-05-27T12:34:04.747Z,29.34
2018-05-27T12:35:04.747Z,29.4
2018-05-27T12:36:04.934Z,29.47
2018-05-27T12:37:04.859Z,29.53
2018-05-27T12:38:04.848Z,29.58
2018-05-27T12:39:04.732Z,29.68
2018-05-27T12:40:04.859Z,29.75
2018-05-27T12:41:04.827Z,29.81
2018-05-27T12:42:04.730Z,29.85
2018-05-27T12:43:04.774Z,29.89
2018-05-27T12:44:04.789Z,29.96
2018-05-27T12:45:04.899Z,30.03
2018-05-27T12:46:05.104Z,30.12
2018-05-27T12:47:04.763Z,30.19
2018-05-27T12:48:04.758Z,30.16
2018-05-27T12:49:04.826Z,30.03
2018-05-27T12:50:04.823Z,30.16
2018-05-27T12:51:05.185Z,30.26
2018-05-27T12:52:04.940Z,30.31
2018-05-27T12:53:04.756Z,30.37
2018-05-27T12:54:04.954Z,30.44
2018-05-27T12:55:04.864Z,30.48